Time;durP1;ratioP1;P1;durP2;ratioP2;P2;SDS_P1;SDS_P2;PMS_P1;PMS_P2;Temp;Humidity;BMP_temperature;BMP_pressure;BME280_temperature;BME280_humidity;BME280_pressure;Samples;Min_cycle;Max_cycle;Signal;HPM_P1;HPM_P2
2023/03/13 00:01:38;;;;;;;7.43;6.67;;;;;;;6.02;100.00;96099.31;4972451;28;102454;-65
2023/03/13 00:04:06;;;;;;;7.47;6.77;;;;;;;5.98;100.00;96082.31;4975738;28;102756;-64
2023/03/13 00:06:35;;;;;;;7.37;6.63;;;;;;;5.97;100.00;96080.72;4971439;28;105315;-64
2023/03/13 00:09:05;;;;;;;7.20;6.50;;;;;;;5.96;100.00;96076.47;4971945;28;102519;-63
2023/03/13 00:11:32;;;;;;;6.77;6.17;;;;;;;5.94;100.00;96081.97;4972729;28;101667;-63
2023/03/13 00:14:03;;;;;;;6.77;6.10;;;;;;;5.91;100.00;96073.72;4972411;28;102291;-64
2023/03/13 00:16:31;;;;;;;6.90;6.30;;;;;;;5.90;100.00;96077.41;4971436;28;102988;-64
2023/03/13 00:18:58;;;;;;;6.63;6.03;;;;;;;5.87;100.00;96065.47;4971101;28;101962;-64
2023/03/13 00:21:28;;;;;;;6.73;6.00;;;;;;;5.95;100.00;96065.09;4972415;28;102349;-64
2023/03/13 00:23:55;;;;;;;6.47;5.87;;;;;;;5.97;100.00;96057.78;4970150;28;105536;-64
2023/03/13 00:26:25;;;;;;;6.90;6.20;;;;;;;5.95;100.00;96049.28;4974351;28;101771;-64
2023/03/13 00:28:52;;;;;;;6.63;6.03;;;;;;;5.90;100.00;96056.28;4970165;28;103654;-64
2023/03/13 00:31:22;;;;;;;6.13;5.53;;;;;;;5.93;100.00;96046.06;4972548;28;102087;-64
2023/03/13 00:33:51;;;;;;;6.10;5.57;;;;;;;5.90;100.00;96045.72;4970922;28;105651;-63
2023/03/13 00:36:21;;;;;;;6.37;5.77;;;;;;;5.92;100.00;96035.75;4970228;28;105348;-63
2023/03/13 00:38:48;;;;;;;6.50;5.90;;;;;;;5.89;100.00;96028.31;4971746;28;101864;-64
2023/03/13 00:41:18;;;;;;;5.70;5.20;;;;;;;5.88;100.00;96029.31;4970488;28;105654;-64
2023/03/13 00:43:48;;;;;;;6.50;5.40;;;;;;;5.86;100.00;96020.81;4970168;28;105285;-63
2023/03/13 00:46:16;;;;;;;5.60;5.10;;;;;;;5.84;100.00;96007.84;4970406;28;101787;-63
2023/03/13 00:48:43;;;;;;;5.60;5.10;;;;;;;5.83;100.00;96010.75;4973538;28;105348;-63
2023/03/13 00:51:13;;;;;;;6.03;5.43;;;;;;;5.85;100.00;96008.66;4971919;28;101829;-64
2023/03/13 00:53:41;;;;;;;6.00;5.40;;;;;;;5.81;100.00;96004.88;4970390;28;105216;-63
2023/03/13 00:56:10;;;;;;;5.53;5.07;;;;;;;5.82;100.00;96004.66;4969572;28;105392;-64
2023/03/13 00:58:38;;;;;;;5.30;4.80;;;;;;;5.79;100.00;96002.44;4970512;28;101969;-63
2023/03/13 01:01:12;;;;;;;5.67;5.17;;;;;;;5.74;100.00;96002.31;4970401;28;105066;-64
2023/03/13 01:03:40;;;;;;;5.40;4.90;;;;;;;5.67;100.00;95993.72;4969551;28;105294;-63
2023/03/13 01:06:08;;;;;;;6.33;5.70;;;;;;;5.62;100.00;95977.78;4970270;28;102014;-64
2023/03/13 01:08:36;;;;;;;5.53;5.03;;;;;;;5.59;100.00;95983.53;4970220;28;105310;-64
2023/03/13 01:11:05;;;;;;;5.70;5.10;;;;;;;5.58;100.00;95978.47;4972577;28;105803;-64
2023/03/13 01:13:34;;;;;;;6.40;5.57;;;;;;;5.52;100.00;95974.91;4970357;28;105744;-64
2023/03/13 01:16:03;;;;;;;5.53;5.03;;;;;;;5.45;100.00;95968.94;4969475;28;105357;-64
2023/03/13 01:18:31;;;;;;;6.27;5.47;;;;;;;5.42;100.00;95966.78;4970037;28;102200;-64
2023/03/13 01:20:58;;;;;;;5.70;5.20;;;;;;;5.21;100.00;95964.69;4970193;28;105564;-63
2023/03/13 01:23:26;;;;;;;6.10;5.50;;;;;;;4.99;100.00;95960.16;4969198;28;105476;-64
2023/03/13 01:25:54;;;;;;;5.73;5.23;;;;;;;4.86;100.00;95958.53;4971534;28;101719;-64
2023/03/13 01:28:21;;;;;;;5.60;5.10;;;;;;;4.54;100.00;95959.78;4969741;28;104871;-64
2023/03/13 01:30:48;;;;;;;6.17;5.20;;;;;;;4.47;100.00;95958.31;4969241;28;105381;-64
2023/03/13 01:33:16;;;;;;;6.07;5.13;;;;;;;4.05;100.00;95953.97;4974840;28;101975;-63
2023/03/13 01:35:45;;;;;;;6.33;5.30;;;;;;;4.12;100.00;95949.41;4969323;28;105765;-64
2023/03/13 01:38:13;;;;;;;5.83;5.33;;;;;;;4.08;100.00;95949.06;4969736;28;101899;-64
2023/03/13 01:40:41;;;;;;;5.53;5.03;;;;;;;3.94;100.00;95947.59;4969661;28;105173;-64
2023/03/13 01:43:19;;;;;;;6.00;5.47;;;;;;;3.77;100.00;95946.56;4968945;28;105502;-64
2023/03/13 01:46:06;;;;;;;5.83;5.33;;;;;;;3.67;100.00;95935.75;4969810;28;101961;-63
2023/03/13 01:49:09;;;;;;;5.90;5.40;;;;;;;3.66;100.00;95949.16;4973704;28;104217;-64
2023/03/13 01:51:52;;;;;;;6.60;5.90;;;;;;;3.52;100.00;95953.72;4969132;28;103917;-64
2023/03/13 01:54:24;;;;;;;5.57;5.03;;;;;;;3.35;100.00;95962.38;4972767;28;101966;-64
2023/03/13 01:56:57;;;;;;;6.10;5.50;;;;;;;3.37;100.00;95960.31;4969137;28;105548;-63
2023/03/13 01:59:27;;;;;;;6.67;5.97;;;;;;;3.40;100.00;95959.91;4969638;28;102132;-64
2023/03/13 02:01:57;;;;;;;6.80;6.10;;;;;;;3.51;100.00;95956.56;4968631;28;104899;-64
2023/03/13 02:04:27;;;;;;;5.83;5.33;;;;;;;3.40;100.00;95949.41;4970442;28;101883;-64
2023/03/13 02:07:00;;;;;;;5.87;5.37;;;;;;;3.27;100.00;95950.31;4969628;28;101843;-64
2023/03/13 02:09:31;;;;;;;6.43;5.83;;;;;;;3.31;100.00;95935.72;4969272;28;105703;-64
2023/03/13 02:12:04;;;;;;;6.37;5.77;;;;;;;3.09;100.00;95934.50;4968434;28;105146;-64
2023/03/13 02:14:35;;;;;;;6.03;5.33;;;;;;;3.01;100.00;95944.47;4969408;28;101727;-64
2023/03/13 02:17:03;;;;;;;6.07;5.47;;;;;;;3.06;100.00;95929.66;4972145;28;104938;-64
2023/03/13 02:19:37;;;;;;;6.00;5.50;;;;;;;2.87;100.00;95929.84;4969238;28;101853;-64
2023/03/13 02:22:15;;;;;;;5.63;5.13;;;;;;;2.78;100.00;95939.78;4969280;28;105318;-64
2023/03/13 02:24:49;;;;;;;6.07;5.47;;;;;;;2.87;100.00;95937.72;4968482;28;105321;-64
2023/03/13 02:27:17;;;;;;;5.10;4.70;;;;;;;2.70;100.00;95942.69;4970593;28;101675;-64
2023/03/13 02:29:45;;;;;;;5.70;5.20;;;;;;;2.69;100.00;95937.66;4969026;28;105263;-64
2023/03/13 02:32:13;;;;;;;6.47;5.73;;;;;;;2.64;100.00;95932.22;4968629;28;105077;-64
2023/03/13 02:34:44;;;;;;;7.00;6.10;;;;;;;2.68;100.00;95934.22;4968769;28;101954;-63
2023/03/13 02:37:13;;;;;;;6.57;5.83;;;;;;;2.64;100.00;95929.59;4969101;28;104935;-64
2023/03/13 02:39:45;;;;;;;6.10;5.50;;;;;;;2.55;100.00;95929.06;4971386;28;105871;-64
2023/03/13 02:42:14;;;;;;;6.50;5.90;;;;;;;2.52;100.00;95924.22;4968693;28;105176;-64
2023/03/13 02:44:45;;;;;;;6.43;5.83;;;;;;;2.51;100.00;95927.06;4968343;28;105434;-64
2023/03/13 02:47:17;;;;;;;8.03;6.30;;;;;;;2.44;100.00;95928.91;4969169;28;102155;-64
2023/03/13 02:49:44;;;;;;;6.73;5.90;;;;;;;2.39;100.00;95929.56;4969108;28;104868;-64
2023/03/13 02:52:17;;;;;;;6.97;6.27;;;;;;;2.39;100.00;95932.19;4968021;28;105999;-64
2023/03/13 02:54:47;;;;;;;6.87;6.13;;;;;;;2.46;100.00;95934.78;4969108;28;101787;-64
2023/03/13 02:57:14;;;;;;;8.60;6.27;;;;;;;2.55;100.00;95944.81;4969040;28;105247;-64
2023/03/13 02:59:43;;;;;;;7.57;6.10;;;;;;;2.88;100.00;95950.63;4967927;28;105441;-64
2023/03/13 03:02:10;;;;;;;8.37;6.97;;;;;;;2.99;100.00;95957.81;4971647;28;101894;-64
2023/03/13 03:04:38;;;;;;;8.30;7.37;;;;;;;3.14;100.00;95954.88;4968280;28;105601;-63
2023/03/13 03:07:04;;;;;;;8.63;7.00;;;;;;;3.17;100.00;95949.19;4968890;28;101888;-64
2023/03/13 03:09:32;;;;;;;6.83;6.10;;;;;;;3.07;100.00;95946.25;4968462;28;105638;-64
2023/03/13 03:12:04;;;;;;;8.37;6.53;;;;;;;2.69;100.00;95950.78;4968014;28;105165;-63
2023/03/13 03:14:32;;;;;;;6.50;5.80;;;;;;;2.55;100.00;95952.69;4968705;28;101992;-64
2023/03/13 03:17:00;;;;;;;7.33;6.20;;;;;;;2.42;100.00;95965.06;4968569;28;104756;-64
2023/03/13 03:19:27;;;;;;;6.40;5.80;;;;;;;2.34;100.00;95967.91;4968051;28;105910;-64
2023/03/13 03:21:54;;;;;;;7.07;6.20;;;;;;;2.46;100.00;95971.50;4968259;28;101935;-64
2023/03/13 03:24:21;;;;;;;7.37;6.67;;;;;;;2.53;100.00;95970.47;4971277;28;105582;-64
2023/03/13 03:26:48;;;;;;;6.70;6.00;;;;;;;2.62;100.00;95976.25;4968483;28;101834;-64
2023/03/13 03:29:28;;;;;;;7.63;6.57;;;;;;;2.69;100.00;95977.81;4968594;28;105100;-64
2023/03/13 03:31:57;;;;;;;7.73;6.77;;;;;;;3.03;100.00;95989.72;4968031;28;105085;-64
2023/03/13 03:34:26;;;;;;;7.67;6.87;;;;;;;3.15;100.00;95988.81;4968437;28;101988;-64
2023/03/13 03:36:53;;;;;;;8.20;7.10;;;;;;;3.20;100.00;95980.28;4968243;28;104822;-64
2023/03/13 03:39:20;;;;;;;7.53;6.80;;;;;;;3.37;100.00;95983.97;4967893;28;105402;-64
2023/03/13 03:41:48;;;;;;;8.53;7.43;;;;;;;3.50;100.00;95976.00;4968412;28;101974;-64
2023/03/13 03:44:14;;;;;;;8.73;7.53;;;;;;;3.67;100.00;95977.03;4968329;28;105100;-64
2023/03/13 03:46:54;;;;;;;8.40;7.20;;;;;;;3.93;100.00;95989.91;4971134;28;105837;-64
2023/03/13 03:49:22;;;;;;;8.40;7.30;;;;;;;4.05;100.00;95986.31;4968303;28;105162;-64
2023/03/13 03:51:51;;;;;;;9.00;7.17;;;;;;;4.22;100.00;95997.88;4970562;28;104758;-64
2023/03/13 03:54:23;;;;;;;7.73;6.80;;;;;;;4.24;100.00;95980.03;4971273;28;101818;-64
2023/03/13 03:56:50;;;;;;;8.30;7.43;;;;;;;4.38;100.00;95991.22;4971516;28;105234;-64
2023/03/13 03:59:17;;;;;;;7.77;6.97;;;;;;;4.29;100.00;95980.19;4970832;28;105126;-64
2023/03/13 04:01:47;;;;;;;7.70;6.83;;;;;;;4.35;100.00;95979.28;4970696;28;102034;-64
2023/03/13 04:04:18;;;;;;;7.47;6.70;;;;;;;4.42;100.00;95981.84;4971328;28;105467;-63
2023/03/13 04:06:51;;;;;;;7.87;7.00;;;;;;;4.44;100.00;95971.91;4974001;28;105424;-64
2023/03/13 04:09:19;;;;;;;7.47;6.60;;;;;;;4.43;100.00;95968.44;4971309;28;104747;-64
2023/03/13 04:11:45;;;;;;;7.20;6.50;;;;;;;4.43;100.00;95971.06;4970614;28;105076;-64
2023/03/13 04:14:12;;;;;;;6.90;6.30;;;;;;;4.44;100.00;95969.25;4970944;28;101841;-64
2023/03/13 04:16:39;;;;;;;7.27;5.90;;;;;;;4.43;100.00;95970.28;4971196;28;104891;-63
2023/03/13 04:19:07;;;;;;;6.50;5.80;;;;;;;4.39;100.00;95966.50;4970253;28;105654;-63
2023/03/13 04:21:34;;;;;;;6.60;6.00;;;;;;;4.14;100.00;95969.22;4971299;28;101946;-64
2023/03/13 04:24:10;;;;;;;8.50;5.97;;;;;;;4.04;100.00;95968.16;4970759;28;105096;-64
2023/03/13 04:26:39;;;;;;;6.33;5.63;;;;;;;3.76;100.00;95960.75;4970601;28;105249;-64
2023/03/13 04:29:07;;;;;;;6.17;5.57;;;;;;;3.53;100.00;95959.78;4974027;28;101984;-64
2023/03/13 04:31:49;;;;;;;6.43;5.63;;;;;;;3.49;100.00;95950.72;4970508;28;105467;-64
2023/03/13 04:34:38;;;;;;;6.00;5.40;;;;;;;3.33;100.00;95959.16;4970760;28;102029;-64
2023/03/13 04:37:24;;;;;;;5.87;5.30;;;;;;;3.31;100.00;95956.75;4972517;28;102068;-64
2023/03/13 04:39:52;;;;;;;5.90;5.40;;;;;;;3.28;100.00;95938.00;4971571;28;102466;-64
2023/03/13 04:42:37;;;;;;;6.07;5.47;;;;;;;3.27;100.00;95939.78;4969263;28;101712;-64
2023/03/13 04:45:22;;;;;;;6.13;5.53;;;;;;;3.21;100.00;95935.41;4970884;28;104910;-64
2023/03/13 04:47:58;;;;;;;5.53;5.03;;;;;;;3.34;100.00;95934.50;4968248;28;102498;-64
2023/03/13 04:50:39;;;;;;;6.53;5.93;;;;;;;3.31;100.00;95922.59;4970746;28;101855;-63
2023/03/13 04:53:25;;;;;;;6.20;5.60;;;;;;;3.30;100.00;95917.53;4971900;28;101971;-64
2023/03/13 04:56:21;;;;;;;6.53;5.87;;;;;;;3.30;100.00;95925.44;4972124;28;102113;-64
2023/03/13 04:58:55;;;;;;;7.40;6.00;;;;;;;3.28;100.00;95915.13;4970582;28;105091;-63
2023/03/13 05:01:57;;;;;;;5.90;5.33;;;;;;;3.29;100.00;95911.47;4968847;28;104711;-64
2023/03/13 05:04:40;;;;;;;6.80;6.10;;;;;;;3.26;100.00;95908.47;4970330;28;101927;-64
2023/03/13 05:07:25;;;;;;;6.83;5.93;;;;;;;3.25;100.00;95901.63;4970372;28;105143;-64
2023/03/13 05:09:55;;;;;;;6.20;5.67;;;;;;;3.28;100.00;95898.56;4970967;28;102581;-64
2023/03/13 05:12:44;;;;;;;7.20;5.93;;;;;;;3.18;100.00;95893.78;4970037;28;102023;-64
2023/03/13 05:15:36;;;;;;;6.17;5.57;;;;;;;2.98;100.00;95882.69;4970277;28;105212;-64
2023/03/13 05:18:24;;;;;;;6.93;6.23;;;;;;;2.87;100.00;95879.94;4982191;28;102248;-63
2023/03/13 05:21:10;;;;;;;7.17;6.40;;;;;;;2.93;100.00;95881.72;4972165;28;102084;-63
2023/03/13 05:24:02;;;;;;;6.93;6.33;;;;;;;3.01;100.00;95868.31;4970374;28;103960;-63
2023/03/13 05:27:02;;;;;;;7.40;6.00;;;;;;;3.29;100.00;95866.81;4969194;28;101865;-63
2023/03/13 05:29:38;;;;;;;7.13;6.00;;;;;;;3.46;100.00;95857.34;4969823;28;105258;-63
2023/03/13 05:32:30;;;;;;;6.20;5.10;;;;;;;3.58;100.00;95863.47;4968996;28;105439;-63
2023/03/13 05:35:14;;;;;;;6.00;5.40;;;;;;;3.81;100.00;95852.25;4969905;28;101791;-63
2023/03/13 05:37:59;;;;;;;6.47;5.83;;;;;;;3.90;100.00;95856.22;4968466;28;102072;-62
2023/03/13 05:40:42;;;;;;;5.67;5.03;;;;;;;3.98;100.00;95848.81;4969172;28;105203;-61
2023/03/13 05:43:47;;;;;;;6.00;5.40;;;;;;;4.11;100.00;95839.94;4971555;28;101932;-61
2023/03/13 05:46:34;;;;;;;5.37;4.83;;;;;;;4.14;100.00;95824.50;4965634;28;102250;-61
2023/03/13 05:49:36;;;;;;;7.10;4.47;;;;;;;4.50;100.00;95820.94;4954339;28;101887;-61
2023/03/13 05:52:21;;;;;;;4.60;4.20;;;;;;;4.64;100.00;95824.97;4968356;28;102072;-61
2023/03/13 05:55:07;;;;;;;4.97;4.53;;;;;;;4.74;100.00;95817.31;4967406;28;102305;-61
2023/03/13 05:57:57;;;;;;;5.07;4.27;;;;;;;4.86;100.00;95810.22;4972323;28;101982;-61
2023/03/13 06:00:43;;;;;;;4.70;4.20;;;;;;;5.09;100.00;95810.22;4968274;28;102044;-61
2023/03/13 06:03:43;;;;;;;4.67;4.27;;;;;;;5.19;100.00;95803.31;4969004;28;103529;-61
2023/03/13 06:06:14;;;;;;;3.93;3.63;;;;;;;5.43;100.00;95810.19;4969372;28;101765;-61
2023/03/13 06:08:48;;;;;;;4.40;4.00;;;;;;;5.52;100.00;95794.81;4972227;28;105525;-61
2023/03/13 06:11:16;;;;;;;4.83;4.37;;;;;;;5.68;100.00;95796.72;4969399;28;101880;-61
2023/03/13 06:13:44;;;;;;;5.87;4.93;;;;;;;5.73;100.00;95791.53;4968595;28;104805;-61
2023/03/13 06:16:23;;;;;;;5.43;4.93;;;;;;;5.81;100.00;95794.63;4968663;28;105410;-61
2023/03/13 06:18:53;;;;;;;4.73;4.17;;;;;;;5.96;100.00;95783.56;4970532;28;101911;-61
2023/03/13 06:21:20;;;;;;;3.47;3.10;;;;;;;5.98;100.00;95784.13;4969215;28;106178;-61
2023/03/13 06:23:48;;;;;;;3.60;3.30;;;;;;;6.00;100.00;95777.56;4968467;28;105403;-61
2023/03/13 06:26:15;;;;;;;3.93;3.53;;;;;;;5.97;100.00;95767.50;4970882;28;101729;-61
2023/03/13 06:28:42;;;;;;;4.60;3.33;;;;;;;6.16;100.00;95770.75;4971668;28;105529;-61
2023/03/13 06:31:08;;;;;;;3.60;3.30;;;;;;;6.15;100.00;95763.84;4969117;28;102031;-61
2023/03/13 06:33:37;;;;;;;2.80;2.60;;;;;;;6.18;100.00;95766.00;4969018;28;105058;-61
2023/03/13 06:36:06;;;;;;;3.00;2.73;;;;;;;6.23;100.00;95761.59;4968564;28;105823;-61
2023/03/13 06:38:33;;;;;;;3.13;2.90;;;;;;;6.29;100.00;95773.88;4969106;28;102123;-61
2023/03/13 06:41:00;;;;;;;4.17;3.40;;;;;;;6.31;100.00;95761.22;4970310;28;102850;-61
2023/03/13 06:43:28;;;;;;;5.33;4.20;;;;;;;6.32;100.00;95746.19;4969669;28;102828;-61
2023/03/13 06:45:54;;;;;;;3.90;3.50;;;;;;;6.37;100.00;95736.50;4970392;28;101978;-61
2023/03/13 06:48:22;;;;;;;2.80;2.60;;;;;;;6.40;100.00;95729.94;4970434;28;102946;-61
2023/03/13 06:50:49;;;;;;;3.17;2.87;;;;;;;6.45;100.00;95738.75;4973036;28;102911;-61
2023/03/13 06:53:19;;;;;;;2.80;2.60;;;;;;;6.51;100.00;95752.84;4970274;28;102588;-61
2023/03/13 06:55:47;;;;;;;2.90;2.70;;;;;;;6.56;100.00;95742.34;4969670;28;103010;-61
2023/03/13 06:58:15;;;;;;;2.77;2.47;;;;;;;6.58;100.00;95743.72;4968551;28;102213;-61
2023/03/13 07:00:43;;;;;;;2.80;2.60;;;;;;;6.64;100.00;95749.84;4970210;28;102518;-61
2023/03/13 07:03:10;;;;;;;2.17;2.07;;;;;;;6.66;100.00;95750.44;4967870;28;105694;-61
2023/03/13 07:05:37;;;;;;;2.60;2.40;;;;;;;6.69;100.00;95747.28;4968722;28;101872;-61
2023/03/13 07:08:04;;;;;;;2.50;2.30;;;;;;;6.68;100.00;95748.34;4970002;28;101687;-61
2023/03/13 07:10:33;;;;;;;2.27;2.03;;;;;;;6.70;100.00;95735.72;4969460;28;102549;-61
2023/03/13 07:13:00;;;;;;;2.63;2.43;;;;;;;6.73;100.00;95740.50;4973400;28;101823;-61
2023/03/13 07:15:27;;;;;;;2.77;2.47;;;;;;;6.71;100.00;95747.88;4969250;28;103087;-61
2023/03/13 07:17:56;;;;;;;3.00;2.43;;;;;;;6.70;100.00;95739.13;4970095;28;101810;-61
2023/03/13 07:20:23;;;;;;;2.10;2.00;;;;;;;6.74;100.00;95745.53;4968874;28;105194;-61
2023/03/13 07:22:52;;;;;;;2.60;2.40;;;;;;;6.81;100.00;95740.09;4969444;28;102669;-61
2023/03/13 07:25:18;;;;;;;2.17;2.07;;;;;;;6.90;100.00;95739.44;4970676;28;101805;-61
2023/03/13 07:27:51;;;;;;;2.57;2.17;;;;;;;6.94;100.00;95745.03;4971646;28;105655;-61
2023/03/13 07:30:18;;;;;;;2.40;2.20;;;;;;;7.00;100.00;95741.41;4971310;28;105832;-61
2023/03/13 07:32:45;;;;;;;1.83;1.73;;;;;;;7.04;100.00;95731.97;4973356;28;101790;-61
2023/03/13 07:35:12;;;;;;;3.77;2.70;;;;;;;7.00;100.00;95747.50;4974646;28;105292;-61
2023/03/13 07:37:38;;;;;;;3.37;3.07;;;;;;;7.06;100.00;95735.16;4973283;28;101778;-61
2023/03/13 07:40:08;;;;;;;3.20;2.50;;;;;;;7.07;100.00;95726.97;4972933;28;102901;-61
2023/03/13 07:42:35;;;;;;;2.53;2.33;;;;;;;7.07;100.00;95720.88;4970835;28;105903;-61
2023/03/13 07:45:03;;;;;;;3.57;2.73;;;;;;;7.03;100.00;95714.50;4973248;28;101731;-61
2023/03/13 07:47:30;;;;;;;2.63;2.43;;;;;;;7.03;100.00;95717.94;4973161;28;102898;-61
2023/03/13 07:49:57;;;;;;;3.20;2.90;;;;;;;7.00;100.00;95721.09;4972317;28;102568;-61
2023/03/13 07:52:25;;;;;;;2.50;2.00;;;;;;;7.05;100.00;95721.16;4971308;28;101994;-61
2023/03/13 07:54:52;;;;;;;1.60;1.50;;;;;;;7.14;100.00;95740.81;4971482;28;104967;-61
2023/03/13 07:57:18;;;;;;;4.03;1.90;;;;;;;7.16;100.00;95751.97;4975654;28;102706;-61
2023/03/13 07:59:45;;;;;;;2.57;2.10;;;;;;;7.20;100.00;95757.56;4972903;28;102936;-61
2023/03/13 08:02:15;;;;;;;1.93;1.73;;;;;;;7.33;100.00;95754.56;4971734;28;102590;-61
2023/03/13 08:04:42;;;;;;;1.60;1.50;;;;;;;7.45;100.00;95732.22;4971160;28;101863;-61
2023/03/13 08:07:09;;;;;;;1.53;1.43;;;;;;;7.53;100.00;95726.50;4973025;28;102813;-61
2023/03/13 08:09:36;;;;;;;1.40;1.40;;;;;;;7.59;100.00;95714.13;4972206;28;103019;-61
2023/03/13 08:12:03;;;;;;;1.63;1.53;;;;;;;7.60;100.00;95713.91;4972475;28;101748;-61
2023/03/13 08:14:31;;;;;;;2.40;2.07;;;;;;;7.67;100.00;95714.50;4972646;28;102356;-61
2023/03/13 08:16:58;;;;;;;1.80;1.70;;;;;;;7.70;100.00;95710.56;4972134;28;102573;-61
2023/03/13 08:19:27;;;;;;;2.20;2.00;;;;;;;7.83;100.00;95718.91;4974435;28;102038;-61
2023/03/13 08:21:54;;;;;;;3.80;1.93;;;;;;;7.87;100.00;95737.72;4970436;28;105788;-61
2023/03/13 08:24:20;;;;;;;1.80;1.70;;;;;;;7.82;100.00;95750.91;4972310;28;101898;-61
2023/03/13 08:26:47;;;;;;;3.13;1.40;;;;;;;7.85;100.00;95742.47;4972605;28;102354;-61
2023/03/13 08:29:15;;;;;;;1.80;1.43;;;;;;;7.87;100.00;95733.25;4971497;28;102599;-61
2023/03/13 08:31:47;;;;;;;2.60;2.13;;;;;;;7.88;100.00;95739.31;4970970;28;101894;-61
2023/03/13 08:34:15;;;;;;;2.17;1.70;;;;;;;7.91;100.00;95728.25;4971004;28;105070;-61
2023/03/13 08:36:44;;;;;;;1.77;1.67;;;;;;;7.96;100.00;95715.06;4970868;28;102647;-61
2023/03/13 08:39:12;;;;;;;2.73;1.83;;;;;;;7.98;100.00;95713.78;4974258;28;102080;-61
2023/03/13 08:41:40;;;;;;;3.57;3.27;;;;;;;7.99;100.00;95715.38;4971117;28;102511;-61
2023/03/13 08:44:10;;;;;;;3.40;2.93;;;;;;;8.04;100.00;95711.94;4970700;28;101878;-61
2023/03/13 08:46:37;;;;;;;2.00;1.73;;;;;;;8.07;100.00;95716.75;4972253;28;102812;-61
2023/03/13 08:49:05;;;;;;;1.90;1.73;;;;;;;8.12;100.00;95708.88;4969802;28;105611;-61
2023/03/13 08:51:32;;;;;;;1.93;1.73;;;;;;;8.13;100.00;95699.88;4970674;28;101904;-61
2023/03/13 08:54:05;;;;;;;2.00;1.90;;;;;;;8.14;100.00;95696.16;4971809;28;102481;-61
2023/03/13 08:56:33;;;;;;;2.17;1.50;;;;;;;8.18;100.00;95695.41;4971520;28;102554;-61
2023/03/13 08:59:04;;;;;;;2.03;1.90;;;;;;;8.18;100.00;95695.41;4970548;28;102095;-61
2023/03/13 09:01:33;;;;;;;4.43;3.07;;;;;;;8.23;100.00;95694.69;4975226;28;102333;-61
2023/03/13 09:04:00;;;;;;;4.23;3.20;;;;;;;8.21;100.00;95692.28;4970259;28;101851;-61
2023/03/13 09:06:27;;;;;;;3.97;3.10;;;;;;;8.25;100.00;95693.41;4971783;28;102559;-61
2023/03/13 09:08:56;;;;;;;3.93;3.40;;;;;;;8.35;100.00;95690.03;4971143;28;102798;-61
2023/03/13 09:11:26;;;;;;;4.30;2.90;;;;;;;8.39;100.00;95686.59;4970221;28;101905;-61
2023/03/13 09:13:55;;;;;;;3.30;3.00;;;;;;;8.23;100.00;95692.81;4970410;28;105288;-61
2023/03/13 09:16:23;;;;;;;6.57;3.60;;;;;;;8.17;100.00;95683.22;4969554;28;105670;-61
2023/03/13 09:18:51;;;;;;;3.97;2.93;;;;;;;8.20;100.00;95689.88;4971473;28;101804;-61
2023/03/13 09:21:20;;;;;;;3.00;2.70;;;;;;;8.06;100.00;95707.19;4970225;28;105580;-61
2023/03/13 09:23:47;;;;;;;4.23;3.03;;;;;;;7.90;100.00;95729.31;4974011;28;102996;-61
2023/03/13 09:26:14;;;;;;;4.67;3.60;;;;;;;7.94;100.00;95733.84;4971374;28;102852;-61
2023/03/13 09:28:43;;;;;;;4.27;3.50;;;;;;;7.96;100.00;95742.31;4970692;28;101902;-61
2023/03/13 09:31:13;;;;;;;4.10;2.80;;;;;;;7.97;100.00;95737.84;4971324;28;101791;-61
2023/03/13 09:33:40;;;;;;;3.83;2.57;;;;;;;7.99;100.00;95735.72;4970162;28;105952;-61
2023/03/13 09:36:09;;;;;;;4.77;3.20;;;;;;;8.05;100.00;95724.13;4970949;28;102593;-61
2023/03/13 09:38:37;;;;;;;5.40;2.70;;;;;;;8.11;100.00;95723.94;4969456;28;101947;-61
2023/03/13 09:41:16;;;;;;;3.57;2.57;;;;;;;8.20;100.00;95705.78;4971218;28;102293;-61
2023/03/13 09:43:49;;;;;;;4.13;2.53;;;;;;;8.41;100.00;95692.44;4969158;28;105595;-61
2023/03/13 09:46:22;;;;;;;3.37;2.60;;;;;;;8.66;100.00;95684.69;4974742;28;101704;-61
2023/03/13 09:48:54;;;;;;;3.23;2.90;;;;;;;8.77;100.00;95685.56;4967863;28;105808;-63
2023/03/13 09:51:25;;;;;;;3.43;3.00;;;;;;;8.90;100.00;95693.06;4971248;28;101922;-63
2023/03/13 09:53:59;;;;;;;4.80;3.30;;;;;;;9.11;100.00;95686.81;4969468;28;105589;-63
2023/03/13 09:56:31;;;;;;;4.93;3.73;;;;;;;9.19;100.00;95684.47;4970629;28;102899;-63
2023/03/13 09:59:10;;;;;;;5.10;4.40;;;;;;;9.25;100.00;95678.13;4970867;28;102442;-63
2023/03/13 10:01:40;;;;;;;4.33;3.93;;;;;;;9.46;100.00;95671.84;4969347;28;104880;-62
2023/03/13 10:04:19;;;;;;;4.20;3.80;;;;;;;9.65;100.00;95672.16;4968912;28;105288;-61
2023/03/13 10:06:50;;;;;;;3.40;3.10;;;;;;;9.45;100.00;95667.59;4969155;28;101929;-62
2023/03/13 10:09:20;;;;;;;3.50;3.20;;;;;;;9.66;100.00;95669.22;4972296;28;105202;-61
2023/03/13 10:11:54;;;;;;;4.73;3.50;;;;;;;9.84;100.00;95671.41;4969313;28;101939;-62
2023/03/13 10:14:30;;;;;;;4.10;3.00;;;;;;;10.19;100.00;95652.88;4969092;28;105476;-61
2023/03/13 10:17:03;;;;;;;3.80;3.50;;;;;;;10.32;100.00;95647.06;4970205;28;101712;-61
2023/03/13 10:19:36;;;;;;;3.83;3.20;;;;;;;10.60;100.00;95632.38;4970832;28;101730;-61
2023/03/13 10:22:10;;;;;;;3.70;2.83;;;;;;;10.54;100.00;95625.50;4969329;28;105856;-61
2023/03/13 10:24:42;;;;;;;3.20;2.87;;;;;;;10.71;100.00;95631.31;4968450;28;105321;-61
2023/03/13 10:27:09;;;;;;;3.13;2.83;;;;;;;10.68;100.00;95629.19;4970907;28;101779;-61
2023/03/13 10:29:38;;;;;;;2.50;2.30;;;;;;;10.76;100.00;95631.31;4970226;28;102345;-61
2023/03/13 10:32:08;;;;;;;2.70;2.43;;;;;;;10.67;100.00;95630.25;4971781;28;102260;-61
2023/03/13 10:34:49;;;;;;;2.57;2.37;;;;;;;11.37;100.00;95633.50;4970460;28;102432;-61
2023/03/13 10:37:20;;;;;;;3.00;2.70;;;;;;;11.11;100.00;95629.34;4969840;28;102680;-61
2023/03/13 10:39:47;;;;;;;3.30;3.00;;;;;;;10.89;100.00;95618.22;4970834;28;101983;-61
2023/03/13 10:42:27;;;;;;;3.90;2.90;;;;;;;10.94;100.00;95622.72;4970366;28;102864;-61
2023/03/13 10:45:01;;;;;;;5.93;2.93;;;;;;;10.46;100.00;95620.72;4969849;28;102503;-61
2023/03/13 10:47:32;;;;;;;2.83;2.50;;;;;;;10.78;100.00;95613.19;4969121;28;101850;-60
2023/03/13 10:49:59;;;;;;;3.23;2.23;;;;;;;10.94;100.00;95607.59;4970584;28;102294;-61
2023/03/13 10:52:33;;;;;;;1.73;1.63;;;;;;;10.94;100.00;95604.13;4971691;28;105659;-60
2023/03/13 10:55:01;;;;;;;2.83;1.80;;;;;;;10.93;100.00;95611.31;4968783;28;104886;-61
2023/03/13 10:57:31;;;;;;;1.90;1.70;;;;;;;11.40;100.00;95605.53;4969489;28;102577;-61
2023/03/13 10:59:59;;;;;;;2.33;2.13;;;;;;;11.85;100.00;95589.31;4971942;28;101871;-60
2023/03/13 11:02:34;;;;;;;2.13;1.93;;;;;;;11.79;100.00;95588.56;4971924;28;105635;-60
2023/03/13 11:05:01;;;;;;;1.77;1.67;;;;;;;12.08;100.00;95576.06;4971206;28;105436;-61
2023/03/13 11:07:30;;;;;;;2.47;1.60;;;;;;;12.89;100.00;95578.75;4972270;28;101703;-61
2023/03/13 11:10:02;;;;;;;1.60;1.50;;;;;;;13.04;100.00;95578.63;4973470;28;102425;-61
2023/03/13 11:12:34;;;;;;;1.90;1.70;;;;;;;13.13;100.00;95582.25;4972652;28;103083;-60
2023/03/13 11:15:06;;;;;;;1.50;1.40;;;;;;;13.19;100.00;95581.13;4977008;28;102028;-60
2023/03/13 11:17:37;;;;;;;1.17;1.17;;;;;;;13.46;100.00;95578.63;4972743;28;103058;-60
2023/03/13 11:20:25;;;;;;;1.63;1.53;;;;;;;13.72;100.00;95575.31;4971920;28;101912;-60
2023/03/13 11:23:01;;;;;;;1.73;1.50;;;;;;;13.67;100.00;95570.03;4973487;28;102839;-60
2023/03/13 11:25:33;;;;;;;1.73;1.47;;;;;;;13.47;100.00;95562.28;4972867;28;102607;-61
2023/03/13 11:28:28;;;;;;;2.50;1.60;;;;;;;13.74;100.00;95550.97;4973227;28;101763;-60
2023/03/13 11:31:06;;;;;;;3.37;1.97;;;;;;;13.75;100.00;95541.88;4971683;28;102533;-61
2023/03/13 11:33:46;;;;;;;2.33;1.90;;;;;;;14.07;100.00;95536.56;4971183;28;105503;-60
2023/03/13 11:36:24;;;;;;;1.70;1.60;;;;;;;13.99;100.00;95539.88;4971689;28;102438;-60
2023/03/13 11:38:54;;;;;;;3.73;1.93;;;;;;;13.82;100.00;95532.41;4974664;28;105082;-60
2023/03/13 11:41:38;;;;;;;1.97;1.77;;;;;;;13.99;100.00;95526.50;4972905;28;102304;-60
2023/03/13 11:44:19;;;;;;;1.80;1.50;;;;;;;14.23;100.00;95521.88;4971686;28;105346;-60
2023/03/13 11:47:03;;;;;;;1.50;1.40;;;;;;;13.78;100.00;95526.03;4972259;28;102774;-60